Time;durP1;ratioP1;P1;durP2;ratioP2;P2;SDS_P1;SDS_P2;PMS_P1;PMS_P2;Temp;Humidity;BMP_temperature;BMP_pressure;BME280_temperature;BME280_humidity;BME280_pressure;Samples;Min_cycle;Max_cycle;Signal;HPM_P1;HPM_P2
2022/03/29 00:02:00;;;;;;;24.00;12.70;;;7.30;99.90;;;;;;5095149;27;20565;-81
2022/03/29 00:04:26;;;;;;;21.17;12.80;;;7.30;99.90;;;;;;5111708;27;20039;-80
2022/03/29 00:06:53;;;;;;;21.10;12.48;;;7.30;99.90;;;;;;5113633;27;20043;-80
2022/03/29 00:09:19;;;;;;;18.65;11.40;;;7.80;99.90;;;;;;5132263;27;20042;-80
2022/03/29 00:11:45;;;;;;;24.35;12.90;;;8.40;99.90;;;;;;5121407;27;20050;-79
2022/03/29 00:14:12;;;;;;;21.80;12.93;;;7.10;99.90;;;;;;5127756;27;20043;-78
2022/03/29 00:16:38;;;;;;;23.85;13.75;;;7.10;99.90;;;;;;5117519;27;20047;-80
2022/03/29 00:19:05;;;;;;;20.55;12.25;;;7.10;99.90;;;;;;5130842;27;20062;-80
2022/03/29 00:21:31;;;;;;;20.10;12.57;;;7.10;99.90;;;;;;5110758;27;20039;-80
2022/03/29 00:23:56;;;;;;;23.30;13.45;;;7.10;99.90;;;;;;5112052;27;20049;-80
2022/03/29 00:26:22;;;;;;;29.25;12.88;;;7.10;99.90;;;;;;5110941;27;20043;-79
2022/03/29 00:28:48;;;;;;;24.85;13.05;;;7.20;99.90;;;;;;5111357;27;20051;-80
2022/03/29 00:31:19;;;;;;;23.70;12.90;;;7.20;99.90;;;;;;5111213;27;20055;-79
2022/03/29 00:33:49;;;;;;;22.08;13.55;;;7.20;99.90;;;;;;5110655;27;20082;-80
2022/03/29 00:36:15;;;;;;;26.52;15.32;;;7.20;99.90;;;;;;5130298;27;20425;-80
2022/03/29 00:38:42;;;;;;;23.40;12.68;;;7.20;99.90;;;;;;5110294;27;20054;-80
2022/03/29 00:41:08;;;;;;;24.98;12.90;;;7.20;99.90;;;;;;5129844;27;20082;-80
2022/03/29 00:43:33;;;;;;;26.27;12.02;;;7.20;99.90;;;;;;5128509;27;20535;-80
2022/03/29 00:45:59;;;;;;;22.55;13.40;;;7.20;99.90;;;;;;5129673;27;20035;-80
2022/03/29 00:48:25;;;;;;;25.33;13.00;;;7.10;99.90;;;;;;5111158;27;20042;-80
2022/03/29 00:50:53;;;;;;;22.23;14.13;;;7.90;99.90;;;;;;5128710;27;20501;-81
2022/03/29 00:53:22;;;;;;;26.50;13.70;;;7.30;99.90;;;;;;5129732;27;20513;-81
2022/03/29 00:55:49;;;;;;;27.92;13.55;;;7.10;99.90;;;;;;5128666;27;20050;-81
2022/03/29 00:58:15;;;;;;;21.75;13.57;;;7.10;99.90;;;;;;5130133;27;20039;-80
2022/03/29 01:00:42;;;;;;;30.80;13.57;;;7.10;99.90;;;;;;5093473;27;20099;-81
2022/03/29 01:03:08;;;;;;;27.83;13.23;;;7.10;99.90;;;;;;5092938;27;20043;-79
2022/03/29 01:05:34;;;;;;;25.60;13.50;;;7.10;99.90;;;;;;5110656;27;20486;-80
2022/03/29 01:08:01;;;;;;;27.33;13.90;;;7.10;99.90;;;;;;5129703;27;20041;-81
2022/03/29 01:10:28;;;;;;;27.20;13.55;;;7.10;99.90;;;;;;5099497;27;20161;-81
2022/03/29 01:12:55;;;;;;;25.58;13.55;;;7.00;99.90;;;;;;5096849;27;20039;-78
2022/03/29 01:15:24;;;;;;;29.88;14.65;;;7.10;99.90;;;;;;5111137;27;20434;-81
2022/03/29 01:17:51;;;;;;;25.77;13.95;;;7.10;99.90;;;;;;5110344;27;20043;-81
2022/03/29 01:20:22;;;;;;;27.63;13.45;;;7.10;99.90;;;;;;5129025;27;20054;-81
2022/03/29 01:22:49;;;;;;;25.95;13.82;;;7.00;99.90;;;;;;5111048;27;20078;-80
2022/03/29 01:25:35;;;;;;;27.88;13.30;;;7.00;99.90;;;;;;5128948;27;20035;-79
2022/03/29 01:28:02;;;;;;;25.27;13.40;;;7.10;99.90;;;;;;5129756;27;20046;-80
2022/03/29 01:30:28;;;;;;;23.30;13.05;;;7.00;99.90;;;;;;5129371;27;20039;-80
2022/03/29 01:32:55;;;;;;;24.02;13.05;;;7.00;99.90;;;;;;5111912;27;20038;-80
2022/03/29 01:35:24;;;;;;;22.60;12.35;;;7.00;99.90;;;;;;5111976;27;20063;-80
2022/03/29 01:37:51;;;;;;;24.95;13.75;;;7.00;99.90;;;;;;5116573;27;20070;-78
2022/03/29 01:40:19;;;;;;;28.23;13.95;;;7.00;99.90;;;;;;5126011;27;20431;-79
2022/03/29 01:42:59;;;;;;;23.60;12.90;;;7.00;99.90;;;;;;5142290;27;20062;-79
2022/03/29 01:45:30;;;;;;;24.33;13.35;;;7.00;99.90;;;;;;5094080;27;20044;-80
2022/03/29 01:47:56;;;;;;;23.98;12.35;;;7.00;99.90;;;;;;5110468;28;20036;-80
2022/03/29 01:50:22;;;;;;;26.90;12.93;;;7.00;99.90;;;;;;5110600;28;20043;-80
2022/03/29 01:52:48;;;;;;;27.33;14.70;;;7.10;99.90;;;;;;5110876;28;20382;-80
2022/03/29 01:55:20;;;;;;;21.85;11.98;;;7.70;99.90;;;;;;5109304;28;20039;-81
2022/03/29 01:57:47;;;;;;;25.50;13.15;;;6.90;99.90;;;;;;5093219;28;20086;-80
2022/03/29 02:00:33;;;;;;;24.00;12.48;;;7.00;99.90;;;;;;5109280;28;20047;-81
2022/03/29 02:03:02;;;;;;;24.65;12.95;;;7.00;99.90;;;;;;5128656;28;20172;-81
2022/03/29 02:05:30;;;;;;;26.63;14.45;;;7.00;99.90;;;;;;5109672;28;20043;-81
2022/03/29 02:07:57;;;;;;;24.90;13.25;;;7.00;99.90;;;;;;5091925;28;20047;-80
2022/03/29 02:10:23;;;;;;;26.92;12.15;;;6.90;99.90;;;;;;5110283;28;20517;-80
2022/03/29 02:12:50;;;;;;;25.65;13.20;;;8.30;99.90;;;;;;5092721;27;20035;-81
2022/03/29 02:15:16;;;;;;;24.55;13.05;;;6.90;99.90;;;;;;5114058;27;20082;-80
2022/03/29 02:17:44;;;;;;;31.73;14.43;;;7.90;99.90;;;;;;5113655;27;20064;-81
2022/03/29 02:20:10;;;;;;;24.55;12.70;;;6.90;99.90;;;;;;5132319;27;20391;-81
2022/03/29 02:22:36;;;;;;;21.38;13.00;;;6.90;99.90;;;;;;5113676;27;20099;-81
2022/03/29 02:25:02;;;;;;;27.85;14.00;;;7.00;99.90;;;;;;5113320;27;20132;-81
2022/03/29 02:27:27;;;;;;;24.08;13.25;;;6.90;99.90;;;;;;5132686;27;20062;-81
2022/03/29 02:29:53;;;;;;;24.95;13.18;;;6.90;99.90;;;;;;5131761;27;20099;-81
2022/03/29 02:32:19;;;;;;;26.13;14.00;;;6.90;99.90;;;;;;5113841;27;20075;-80
2022/03/29 02:34:47;;;;;;;25.92;12.93;;;6.90;99.90;;;;;;5096407;27;20066;-81
2022/03/29 02:37:13;;;;;;;24.92;13.75;;;6.90;99.90;;;;;;5116388;27;20055;-80
2022/03/29 02:39:40;;;;;;;22.65;13.88;;;6.90;99.90;;;;;;5101215;27;20126;-81
2022/03/29 02:42:07;;;;;;;23.42;12.07;;;6.90;99.90;;;;;;5132841;27;20142;-81
2022/03/29 02:44:33;;;;;;;26.33;13.15;;;6.90;99.90;;;;;;5114123;27;20051;-80
2022/03/29 02:46:59;;;;;;;20.30;12.23;;;6.90;99.90;;;;;;5131485;27;20124;-80
2022/03/29 02:49:25;;;;;;;29.30;13.65;;;6.90;99.90;;;;;;5132373;27;20075;-80
2022/03/29 02:51:52;;;;;;;25.42;13.63;;;6.90;99.90;;;;;;5132318;27;20043;-81
2022/03/29 02:54:19;;;;;;;24.30;12.65;;;6.90;99.90;;;;;;5132260;27;20065;-80
2022/03/29 02:56:45;;;;;;;28.45;14.02;;;6.90;99.90;;;;;;5114220;27;20058;-81
2022/03/29 02:59:11;;;;;;;22.50;13.68;;;7.80;99.90;;;;;;5132462;27;20039;-80
2022/03/29 03:01:36;;;;;;;27.27;12.68;;;6.90;99.90;;;;;;5120561;27;20051;-79
2022/03/29 03:04:02;;;;;;;26.95;12.82;;;6.90;99.90;;;;;;5147235;27;20043;-80
2022/03/29 03:06:28;;;;;;;37.00;13.73;;;6.90;99.90;;;;;;5120727;27;20068;-82
2022/03/29 03:08:54;;;;;;;24.65;13.40;;;6.90;99.90;;;;;;5132016;27;20047;-80
2022/03/29 03:11:20;;;;;;;23.60;12.43;;;6.90;99.90;;;;;;5096075;27;20043;-80
2022/03/29 03:13:46;;;;;;;24.67;13.18;;;6.90;99.90;;;;;;5112682;27;20052;-80
2022/03/29 03:16:12;;;;;;;26.13;12.35;;;6.90;99.90;;;;;;5130654;27;20047;-79
2022/03/29 03:18:38;;;;;;;27.25;13.75;;;6.90;99.90;;;;;;5131402;27;20613;-79
2022/03/29 03:21:04;;;;;;;26.67;13.98;;;6.90;99.90;;;;;;5130444;27;20346;-80
2022/03/29 03:23:30;;;;;;;33.88;14.65;;;6.90;99.90;;;;;;5131389;27;20458;-80
2022/03/29 03:25:56;;;;;;;23.50;13.48;;;6.90;99.90;;;;;;5111725;27;20044;-80
2022/03/29 03:28:21;;;;;;;28.42;13.45;;;6.90;99.90;;;;;;5130985;27;20505;-80
2022/03/29 03:30:47;;;;;;;31.63;15.27;;;6.90;99.90;;;;;;5112106;27;20090;-79
2022/03/29 03:33:13;;;;;;;30.10;14.38;;;6.90;99.90;;;;;;5095625;27;20104;-80
2022/03/29 03:35:39;;;;;;;23.27;13.57;;;6.90;99.90;;;;;;5078526;27;20478;-80
2022/03/29 03:38:07;;;;;;;31.15;14.35;;;7.00;99.90;;;;;;5094559;27;20067;-81
2022/03/29 03:40:33;;;;;;;30.50;14.50;;;6.90;99.90;;;;;;5078963;27;20475;-80
2022/03/29 03:43:00;;;;;;;38.40;14.23;;;7.00;99.90;;;;;;5130259;27;20050;-80
2022/03/29 03:45:26;;;;;;;25.30;14.52;;;6.90;99.90;;;;;;5112108;27;20178;-79
2022/03/29 03:47:51;;;;;;;27.25;15.05;;;7.20;99.90;;;;;;5111924;27;20161;-80
2022/03/29 03:50:17;;;;;;;25.27;14.07;;;7.60;99.90;;;;;;5095412;27;20043;-80
2022/03/29 03:52:43;;;;;;;32.22;13.88;;;6.90;99.90;;;;;;5095187;27;20060;-80
2022/03/29 03:55:09;;;;;;;28.33;14.10;;;6.90;99.90;;;;;;5094815;27;20200;-79
2022/03/29 03:57:35;;;;;;;24.48;14.40;;;6.90;99.90;;;;;;5112507;27;20087;-80
2022/03/29 04:00:01;;;;;;;22.52;13.85;;;7.00;99.90;;;;;;5131087;27;20039;-80
2022/03/29 04:02:27;;;;;;;36.38;14.27;;;6.90;99.90;;;;;;5111821;27;20043;-80
2022/03/29 04:04:53;;;;;;;25.00;13.48;;;6.90;99.90;;;;;;5118306;27;20047;-80
2022/03/29 04:07:19;;;;;;;29.13;14.10;;;6.90;99.90;;;;;;5085908;27;20090;-82
2022/03/29 04:09:45;;;;;;;24.45;14.38;;;6.90;99.90;;;;;;5113545;27;20380;-80
2022/03/29 04:18:18;;;;;;;28.05;13.32;;;6.90;99.90;;;;;;5131723;27;20126;-80
2022/03/29 04:20:44;;;;;;;30.55;15.75;;;6.90;99.90;;;;;;5131051;27;20047;-79
2022/03/29 04:23:09;;;;;;;37.88;14.13;;;6.90;99.90;;;;;;5131984;27;20128;-80
2022/03/29 04:25:35;;;;;;;27.83;15.75;;;6.90;99.90;;;;;;5097183;27;20039;-80
2022/03/29 04:28:01;;;;;;;31.27;15.85;;;6.90;99.90;;;;;;5122470;27;20039;-78
2022/03/29 04:30:27;;;;;;;23.90;15.18;;;6.90;99.90;;;;;;5103599;27;20411;-80
2022/03/29 04:32:56;;;;;;;26.95;14.45;;;6.90;99.90;;;;;;5111653;27;20050;-83
2022/03/29 04:35:22;;;;;;;31.13;15.65;;;6.90;99.90;;;;;;5111390;27;20089;-80
2022/03/29 04:37:47;;;;;;;28.38;14.88;;;6.90;99.90;;;;;;5110507;27;20218;-81
2022/03/29 04:40:14;;;;;;;33.33;15.15;;;6.90;99.90;;;;;;5130040;27;20394;-80
2022/03/29 04:42:47;;;;;;;27.83;15.10;;;6.90;99.90;;;;;;5129238;27;20070;-79
2022/03/29 04:45:13;;;;;;;34.83;15.95;;;6.90;99.90;;;;;;5111056;27;20494;-79
2022/03/29 04:47:41;;;;;;;30.52;16.13;;;6.90;99.90;;;;;;5076781;27;20051;-80
2022/03/29 04:50:11;;;;;;;31.95;15.60;;;6.90;99.90;;;;;;5110634;27;20510;-80
2022/03/29 04:52:39;;;;;;;32.03;16.17;;;6.90;99.90;;;;;;5110583;27;20123;-80
2022/03/29 04:55:06;;;;;;;26.10;15.25;;;6.90;99.90;;;;;;5093403;27;20078;-79
2022/03/29 04:57:32;;;;;;;30.92;16.27;;;6.90;99.90;;;;;;5130098;27;20451;-80
2022/03/29 04:59:58;;;;;;;34.90;16.35;;;6.80;99.90;;;;;;5129734;27;20130;-80
2022/03/29 05:02:24;;;;;;;29.75;16.77;;;6.80;99.90;;;;;;5111095;27;20139;-81
2022/03/29 05:04:51;;;;;;;30.40;17.73;;;6.80;99.90;;;;;;5093778;27;20079;-80
2022/03/29 05:07:17;;;;;;;29.80;15.85;;;6.80;99.90;;;;;;5093591;27;20410;-81
2022/03/29 05:09:43;;;;;;;35.78;16.13;;;6.80;99.90;;;;;;5110217;27;20032;-80
2022/03/29 05:12:09;;;;;;;30.55;16.63;;;6.80;99.90;;;;;;5128769;27;20050;-80
2022/03/29 05:14:36;;;;;;;30.38;16.75;;;6.80;99.90;;;;;;5129495;27;20096;-81
2022/03/29 05:17:02;;;;;;;35.50;16.48;;;6.80;99.90;;;;;;5093361;27;20479;-82
2022/03/29 05:19:28;;;;;;;32.55;17.35;;;6.80;99.90;;;;;;5093502;27;20051;-82
2022/03/29 05:21:53;;;;;;;35.08;17.90;;;6.80;99.90;;;;;;5110229;27;20046;-82
2022/03/29 05:24:19;;;;;;;32.22;18.33;;;6.80;99.90;;;;;;5128898;27;20040;-82
2022/03/29 05:26:45;;;;;;;37.80;18.98;;;7.40;99.90;;;;;;5128434;27;20110;-82
2022/03/29 05:29:11;;;;;;;33.88;17.77;;;6.80;99.90;;;;;;5075451;27;20047;-82
2022/03/29 05:31:38;;;;;;;35.22;17.95;;;6.90;99.90;;;;;;5114105;27;20130;-81
2022/03/29 05:34:04;;;;;;;33.83;18.35;;;6.80;99.90;;;;;;5100880;27;20043;-81
2022/03/29 05:36:30;;;;;;;40.75;17.92;;;6.90;99.90;;;;;;5079714;27;20459;-81
2022/03/29 05:38:56;;;;;;;29.23;17.15;;;6.90;99.90;;;;;;5109981;28;20082;-83
2022/03/29 05:41:21;;;;;;;37.70;16.33;;;7.80;99.90;;;;;;5129000;27;20054;-82
2022/03/29 05:43:48;;;;;;;32.08;16.52;;;7.70;99.90;;;;;;5110163;27;20082;-81
2022/03/29 05:49:00;;;;;;;39.72;17.58;;;7.00;99.90;;;;;;5131158;27;20071;-80
2022/03/29 05:51:28;;;;;;;29.90;18.13;;;6.90;99.90;;;;;;5118948;28;20039;-81
2022/03/29 05:53:56;;;;;;;37.00;17.50;;;6.90;99.90;;;;;;5123736;28;20054;-80
2022/03/29 05:56:22;;;;;;;29.25;16.23;;;6.80;99.90;;;;;;5114619;28;20061;-83
2022/03/29 05:58:50;;;;;;;35.42;18.73;;;6.80;99.90;;;;;;5110638;28;20418;-82
2022/03/29 06:01:16;;;;;;;34.85;18.17;;;7.90;99.90;;;;;;5128662;28;20050;-82
2022/03/29 06:03:42;;;;;;;29.20;15.48;;;6.90;99.90;;;;;;5109446;28;20544;-82
2022/03/29 06:06:08;;;;;;;37.60;16.33;;;7.00;99.90;;;;;;5109695;28;20039;-82
2022/03/29 06:08:35;;;;;;;34.20;16.63;;;8.00;99.90;;;;;;5109657;28;20051;-82
2022/03/29 06:11:02;;;;;;;42.42;18.10;;;6.90;99.90;;;;;;5109326;28;20047;-82
2022/03/29 06:13:28;;;;;;;37.45;17.75;;;6.90;99.90;;;;;;5109167;28;20504;-83
2022/03/29 06:15:54;;;;;;;33.45;16.95;;;6.90;99.90;;;;;;5109313;28;20062;-82
2022/03/29 06:18:20;;;;;;;40.00;17.70;;;6.90;99.90;;;;;;5077999;28;20054;-82
2022/03/29 06:20:50;;;;;;;34.58;16.60;;;6.90;99.90;;;;;;5109943;28;20534;-82
2022/03/29 06:23:16;;;;;;;29.90;15.80;;;7.60;99.90;;;;;;5110176;28;20047;-82
2022/03/29 06:25:43;;;;;;;36.60;16.85;;;7.00;99.90;;;;;;5093146;28;20143;-84
2022/03/29 06:28:10;;;;;;;42.95;18.05;;;7.00;99.90;;;;;;5111368;28;20100;-83
2022/03/29 06:30:38;;;;;;;35.70;16.40;;;7.00;99.90;;;;;;5129169;28;20523;-83
2022/03/29 06:33:04;;;;;;;28.67;16.15;;;7.00;99.90;;;;;;5093422;28;20367;-82
2022/03/29 06:35:31;;;;;;;40.08;16.10;;;7.10;99.90;;;;;;5128614;28;20039;-81
2022/03/29 06:37:59;;;;;;;28.63;15.82;;;7.10;99.90;;;;;;5092704;28;20055;-82
2022/03/29 06:40:26;;;;;;;31.67;16.80;;;7.10;99.90;;;;;;5109642;28;20043;-82
2022/03/29 06:42:53;;;;;;;32.35;16.77;;;8.00;99.90;;;;;;5110297;28;20043;-82
2022/03/29 06:45:19;;;;;;;26.25;15.55;;;7.10;99.90;;;;;;5134091;28;20082;-83
2022/03/29 06:47:45;;;;;;;34.70;16.80;;;7.40;99.90;;;;;;5112303;28;20054;-82
2022/03/29 06:50:11;;;;;;;39.85;18.05;;;7.20;99.90;;;;;;5109884;28;20047;-82
2022/03/29 06:52:45;;;;;;;36.40;16.10;;;7.20;99.90;;;;;;5109557;28;20051;-81
2022/03/29 06:55:21;;;;;;;32.42;16.80;;;8.00;99.90;;;;;;5109320;28;20111;-82
2022/03/29 06:57:47;;;;;;;37.53;17.33;;;7.30;99.90;;;;;;5110049;28;20575;-82
2022/03/29 07:00:13;;;;;;;31.70;16.75;;;7.30;99.90;;;;;;5098576;27;20047;-83
2022/03/29 07:02:39;;;;;;;32.53;16.77;;;7.40;99.90;;;;;;5102696;27;20041;-82
2022/03/29 07:05:06;;;;;;;36.17;16.40;;;7.40;99.90;;;;;;5079283;27;20047;-81
2022/03/29 07:07:32;;;;;;;36.30;16.65;;;7.40;99.90;;;;;;5113280;27;20127;-82
2022/03/29 07:12:53;;;;;;;26.98;15.55;;;7.50;99.90;;;;;;5114070;27;20567;-81
2022/03/29 07:15:19;;;;;;;35.75;16.67;;;7.60;99.90;;;;;;5115235;27;20043;-83
2022/03/29 07:17:46;;;;;;;32.45;16.27;;;7.70;99.90;;;;;;5125906;27;20068;-81
2022/03/29 07:20:13;;;;;;;35.00;16.77;;;7.70;99.90;;;;;;5109417;27;20051;-82
2022/03/29 07:22:39;;;;;;;41.03;16.85;;;7.80;99.90;;;;;;5096856;27;20490;-82
2022/03/29 07:25:05;;;;;;;33.80;16.10;;;7.90;99.90;;;;;;5096375;27;20081;-82
2022/03/29 07:27:31;;;;;;;30.60;15.82;;;7.90;99.90;;;;;;5113649;27;20050;-82
2022/03/29 07:29:59;;;;;;;30.55;15.82;;;8.00;99.90;;;;;;5112948;27;20406;-82
2022/03/29 07:32:26;;;;;;;28.30;15.43;;;8.10;99.90;;;;;;5112696;27;20088;-82
2022/03/29 07:34:54;;;;;;;30.38;15.95;;;8.20;99.90;;;;;;5112638;27;20065;-81
2022/03/29 07:37:21;;;;;;;28.67;15.52;;;8.70;99.90;;;;;;5079590;27;20515;-82
2022/03/29 07:39:48;;;;;;;34.30;15.65;;;8.30;99.90;;;;;;5112662;27;20051;-81
2022/03/29 07:42:14;;;;;;;37.03;16.27;;;8.40;99.90;;;;;;5112881;27;20123;-81
2022/03/29 07:44:40;;;;;;;29.95;14.18;;;8.50;99.90;;;;;;5112856;27;20048;-81
2022/03/29 07:47:05;;;;;;;29.38;13.68;;;8.60;99.90;;;;;;5096237;27;20092;-82
2022/03/29 07:49:31;;;;;;;31.17;13.75;;;8.60;99.90;;;;;;5112665;27;20047;-81
2022/03/29 07:51:57;;;;;;;29.58;14.80;;;8.70;99.90;;;;;;5113018;27;20051;-83
2022/03/29 07:54:22;;;;;;;38.30;14.63;;;8.70;99.90;;;;;;5131533;27;20035;-81
2022/03/29 07:56:48;;;;;;;29.92;13.75;;;8.70;99.90;;;;;;5112825;27;20462;-82
2022/03/29 07:59:14;;;;;;;33.75;13.95;;;8.80;99.90;;;;;;5113053;27;20530;-82
2022/03/29 08:01:40;;;;;;;25.67;13.60;;;8.80;99.90;;;;;;5096175;27;20122;-82
2022/03/29 08:04:06;;;;;;;26.05;13.57;;;8.80;99.90;;;;;;5114323;27;20464;-81
2022/03/29 08:06:32;;;;;;;28.27;13.73;;;8.80;99.90;;;;;;5113736;27;20032;-81
2022/03/29 08:08:57;;;;;;;25.98;12.57;;;8.90;99.90;;;;;;5114590;27;20039;-82
2022/03/29 08:11:24;;;;;;;22.63;11.90;;;8.90;99.90;;;;;;5131471;27;20043;-82
2022/03/29 08:13:50;;;;;;;31.15;12.70;;;8.80;99.90;;;;;;5095212;27;20118;-82
2022/03/29 08:16:16;;;;;;;28.48;11.25;;;8.80;99.90;;;;;;5095649;27;20039;-81
2022/03/29 08:18:42;;;;;;;22.10;9.95;;;8.80;99.90;;;;;;5112367;27;20076;-82
2022/03/29 08:23:53;;;;;;;28.85;10.80;;;8.90;99.90;;;;;;5113012;27;20079;-82
2022/03/29 08:26:19;;;;;;;35.40;10.98;;;9.00;99.90;;;;;;5112407;27;20057;-82
2022/03/29 08:28:46;;;;;;;27.05;9.45;;;9.00;99.90;;;;;;5118050;27;20095;-80
2022/03/29 08:31:12;;;;;;;24.65;9.95;;;9.20;99.90;;;;;;5136715;27;20051;-82
2022/03/29 08:33:38;;;;;;;27.70;9.18;;;9.20;99.90;;;;;;5132990;27;20039;-82
2022/03/29 08:36:04;;;;;;;19.20;8.20;;;9.20;99.90;;;;;;5096338;27;20585;-82
2022/03/29 08:38:30;;;;;;;22.15;8.40;;;9.20;99.90;;;;;;5132868;27;20116;-82
2022/03/29 08:40:58;;;;;;;20.73;7.93;;;9.20;99.90;;;;;;5134576;27;20035;-81
2022/03/29 08:43:27;;;;;;;22.45;8.00;;;9.20;99.90;;;;;;5140130;27;20051;-80
2022/03/29 08:45:54;;;;;;;19.65;7.82;;;9.10;99.90;;;;;;5123096;27;20078;-81
2022/03/29 08:48:28;;;;;;;24.52;8.13;;;9.10;99.90;;;;;;5082691;27;20054;-82
2022/03/29 08:50:56;;;;;;;22.13;8.00;;;9.10;99.90;;;;;;5113667;27;20047;-81
2022/03/29 08:53:22;;;;;;;20.92;8.90;;;9.10;99.90;;;;;;5095121;27;20517;-82
2022/03/29 08:55:49;;;;;;;17.27;6.45;;;9.10;99.90;;;;;;5095519;27;20047;-82
2022/03/29 08:58:17;;;;;;;20.05;6.63;;;9.20;99.90;;;;;;5110151;27;20171;-82
2022/03/29 09:00:48;;;;;;;20.73;7.97;;;9.40;99.90;;;;;;5110474;27;20078;-82
2022/03/29 09:03:16;;;;;;;18.23;6.57;;;9.40;99.90;;;;;;5129177;27;20135;-82
2022/03/29 09:05:42;;;;;;;15.52;7.20;;;9.40;99.90;;;;;;5093106;27;20096;-82
2022/03/29 09:08:09;;;;;;;22.23;6.22;;;9.40;99.90;;;;;;5110507;27;20051;-82
2022/03/29 09:10:44;;;;;;;23.63;7.60;;;9.40;99.90;;;;;;5077436;27;20088;-82
2022/03/29 09:13:25;;;;;;;16.60;7.18;;;9.50;99.90;;;;;;5113653;27;20122;-82
2022/03/29 09:15:56;;;;;;;22.30;6.55;;;9.60;99.90;;;;;;5112110;27;20043;-81
2022/03/29 09:18:22;;;;;;;17.98;6.85;;;9.70;99.90;;;;;;5128716;27;20054;-82
2022/03/29 09:21:06;;;;;;;20.88;6.15;;;9.70;99.90;;;;;;5129148;27;20046;-82
2022/03/29 09:23:32;;;;;;;21.80;6.28;;;10.00;99.90;;;;;;5109460;27;20088;-82
2022/03/29 09:25:57;;;;;;;20.13;6.72;;;10.10;99.90;;;;;;5110139;27;20039;-81
2022/03/29 09:28:23;;;;;;;22.50;7.30;;;10.30;99.90;;;;;;5128379;27;20131;-81
2022/03/29 09:30:51;;;;;;;17.42;5.88;;;10.40;99.90;;;;;;5128399;27;20159;-81
2022/03/29 09:33:20;;;;;;;19.63;6.15;;;10.40;99.90;;;;;;5093626;27;20047;-81
2022/03/29 09:36:07;;;;;;;15.70;5.45;;;10.40;99.90;;;;;;5093221;27;20112;-81
2022/03/29 09:38:44;;;;;;;15.70;6.90;;;10.60;99.90;;;;;;5093819;27;20039;-81
2022/03/29 09:41:26;;;;;;;15.27;6.07;;;10.80;99.90;;;;;;5093079;27;20039;-82
2022/03/29 09:44:07;;;;;;;15.60;5.57;;;10.90;99.90;;;;;;5110043;27;20073;-82
2022/03/29 09:47:02;;;;;;;16.67;6.05;;;11.00;99.90;;;;;;5110319;27;20039;-82
2022/03/29 09:49:29;;;;;;;18.92;6.55;;;11.10;99.90;;;;;;5092856;27;20089;-82
2022/03/29 09:52:11;;;;;;;22.88;6.43;;;11.20;99.90;;;;;;5128879;27;20066;-83
2022/03/29 09:54:38;;;;;;;23.33;7.05;;;11.20;99.90;;;;;;5128578;27;20406;-82
2022/03/29 09:57:04;;;;;;;17.50;5.80;;;11.30;99.90;;;;;;5111853;28;20104;-81
2022/03/29 09:59:32;;;;;;;17.27;5.97;;;11.40;99.90;;;;;;5136805;28;20034;-84
2022/03/29 10:01:58;;;;;;;22.85;6.07;;;11.50;99.90;;;;;;5113952;28;20092;-81
2022/03/29 10:04:26;;;;;;;14.73;5.72;;;11.50;99.90;;;;;;5110497;28;20049;-82
2022/03/29 10:06:56;;;;;;;18.73;4.80;;;10.90;99.90;;;;;;5110508;28;20039;-81
2022/03/29 10:09:29;;;;;;;21.30;5.72;;;11.40;99.90;;;;;;5111498;28;20043;-82
2022/03/29 10:12:04;;;;;;;23.58;6.53;;;11.30;99.90;;;;;;5119687;27;20726;-80
2022/03/29 10:14:32;;;;;;;26.40;5.82;;;11.20;99.90;;;;;;5139633;28;20043;-79
2022/03/29 10:16:58;;;;;;;15.10;5.57;;;11.20;99.90;;;;;;5111525;28;20091;-81
2022/03/29 10:19:25;;;;;;;16.52;4.85;;;11.30;99.90;;;;;;5093162;28;20042;-82
2022/03/29 10:21:57;;;;;;;16.33;5.03;;;11.30;99.90;;;;;;5109374;28;20047;-81
2022/03/29 10:24:23;;;;;;;20.35;4.57;;;12.50;99.90;;;;;;5109212;28;20043;-83
2022/03/29 10:26:52;;;;;;;14.77;4.03;;;11.30;99.90;;;;;;5108868;28;20130;-83
2022/03/29 10:29:19;;;;;;;19.10;5.57;;;11.30;99.90;;;;;;5109907;28;20039;-82
2022/03/29 10:31:52;;;;;;;15.95;5.20;;;11.40;99.90;;;;;;5108916;28;20455;-83
2022/03/29 10:34:22;;;;;;;;;;;11.60;99.90;;;;;;5110594;27;20039;-83
2022/03/29 10:37:09;;;;;;;13.60;4.95;;;11.70;99.90;;;;;;5096292;27;19964;-83
2022/03/29 10:39:52;;;;;;;15.40;4.93;;;11.70;99.90;;;;;;5113306;27;20054;-81
2022/03/29 10:42:36;;;;;;;17.08;4.57;;;11.80;99.90;;;;;;5113510;27;20039;-83
2022/03/29 10:45:23;;;;;;;17.65;4.57;;;11.80;99.90;;;;;;5109706;28;20055;-82
2022/03/29 10:48:00;;;;;;;16.15;4.78;;;11.80;99.90;;;;;;5092447;28;20104;-82
2022/03/29 10:50:53;;;;;;;14.90;4.32;;;11.80;99.90;;;;;;5111870;28;20417;-83
2022/03/29 10:53:29;;;;;;;11.93;4.03;;;11.90;99.90;;;;;;5109416;28;20067;-83
2022/03/29 10:56:15;;;;;;;15.95;5.22;;;12.00;99.90;;;;;;5109487;28;20047;-84
2022/03/29 10:59:02;;;;;;;14.40;3.75;;;11.90;99.90;;;;;;5092118;28;20043;-82
2022/03/29 11:01:32;;;;;;;14.70;4.93;;;12.00;99.90;;;;;;5110418;28;20445;-82
2022/03/29 11:04:20;;;;;;;15.20;4.15;;;12.10;99.90;;;;;;5110029;28;20074;-82
2022/03/29 11:07:07;;;;;;;12.93;4.43;;;12.40;99.90;;;;;;5092125;28;20789;-82
2022/03/29 11:09:35;;;;;;;14.63;5.32;;;12.60;99.90;;;;;;5110519;28;20046;-81
2022/03/29 11:12:01;;;;;;;10.00;4.78;;;12.60;99.90;;;;;;5092725;28;20047;-82
2022/03/29 11:14:34;;;;;;;17.88;5.03;;;12.50;99.90;;;;;;5110587;27;20063;-81
2022/03/29 11:17:09;;;;;;;17.42;5.25;;;12.40;99.90;;;;;;5111435;28;20043;-82
2022/03/29 11:19:46;;;;;;;13.48;4.57;;;12.20;99.90;;;;;;5110560;27;20158;-80
2022/03/29 11:22:25;;;;;;;19.52;5.75;;;12.00;99.90;;;;;;5110480;28;20048;-80
2022/03/29 11:25:15;;;;;;;16.88;4.55;;;12.60;99.90;;;;;;5114076;28;20048;-82
2022/03/29 11:27:41;;;;;;;17.20;5.47;;;11.70;99.90;;;;;;5096650;28;20047;-81
2022/03/29 11:30:11;;;;;;;20.92;5.20;;;11.60;99.90;;;;;;5110415;28;20055;-79
2022/03/29 11:32:42;;;;;;;14.30;5.40;;;11.60;99.90;;;;;;5111355;28;20031;-80
2022/03/29 11:35:11;;;;;;;13.65;4.80;;;11.40;99.90;;;;;;5110590;28;20048;-80
2022/03/29 11:37:40;;;;;;;15.60;4.35;;;11.50;99.90;;;;;;5123357;28;20055;-81
2022/03/29 11:40:08;;;;;;;12.02;3.78;;;11.30;99.90;;;;;;5119030;28;20495;-81
2022/03/29 11:42:55;;;;;;;19.13;5.35;;;11.20;99.90;;;;;;5097667;28;20043;-81
2022/03/29 11:45:26;;;;;;;15.40;4.00;;;11.20;99.90;;;;;;5109336;28;20134;-81
2022/03/29 11:47:59;;;;;;;16.40;4.90;;;11.20;99.90;;;;;;5109604;28;20044;-81
2022/03/29 11:50:31;;;;;;;8.90;3.88;;;11.10;99.90;;;;;;5108672;28;20080;-82
2022/03/29 11:52:57;;;;;;;17.52;4.75;;;11.00;99.90;;;;;;5108158;28;20526;-81
2022/03/29 11:55:23;;;;;;;19.02;5.13;;;11.10;99.90;;;;;;5110276;28;20083;-81
2022/03/29 11:57:49;;;;;;;20.20;5.95;;;11.00;99.90;;;;;;5108399;28;20410;-82
2022/03/29 12:00:27;;;;;;;20.83;4.60;;;10.90;99.90;;;;;;5108432;28;20032;-82
2022/03/29 12:02:53;;;;;;;18.95;5.55;;;11.10;99.90;;;;;;5109816;28;20043;-82
2022/03/29 12:05:28;;;;;;;22.95;5.28;;;11.20;99.90;;;;;;5107903;28;20051;-81
2022/03/29 12:08:03;;;;;;;16.58;5.22;;;11.30;99.90;;;;;;5110227;28;20086;-81
2022/03/29 12:10:34;;;;;;;16.55;5.28;;;11.20;99.90;;;;;;5107802;28;20044;-81
2022/03/29 12:13:03;;;;;;;14.25;4.55;;;11.20;99.90;;;;;;5108119;28;20040;-81
2022/03/29 12:15:29;;;;;;;15.30;5.47;;;11.30;99.90;;;;;;5108198;28;20043;-82
2022/03/29 12:18:40;;;;;;;20.27;4.72;;;11.40;99.90;;;;;;5109178;28;20059;-82
2022/03/29 12:20:45;;;;;;;16.48;5.22;;;11.50;99.90;;;;;;5109593;28;20087;-82
2022/03/29 12:23:22;;;;;;;15.23;4.97;;;11.50;99.90;;;;;;5090451;28;20042;-82
2022/03/29 12:25:49;;;;;;;17.63;5.28;;;11.50;99.90;;;;;;5110238;28;20120;-82
2022/03/29 12:28:16;;;;;;;18.00;6.28;;;11.50;99.90;;;;;;5109679;28;20040;-81
2022/03/29 12:30:42;;;;;;;17.45;6.28;;;11.60;99.90;;;;;;5108649;28;20100;-81
2022/03/29 12:33:08;;;;;;;14.85;6.00;;;11.70;99.90;;;;;;5109263;28;20046;-81
2022/03/29 12:35:35;;;;;;;18.13;6.43;;;11.80;99.90;;;;;;5109663;28;20043;-81
2022/03/29 12:38:03;;;;;;;12.10;5.70;;;12.00;99.90;;;;;;5077008;28;20589;-81
2022/03/29 12:40:28;;;;;;;23.08;6.35;;;11.80;99.90;;;;;;5108690;28;20044;-82
2022/03/29 12:43:02;;;;;;;15.95;6.22;;;11.80;99.90;;;;;;5093542;27;20094;-81
2022/03/29 12:45:28;;;;;;;24.08;7.57;;;11.80;99.30;;;;;;5095281;27;20089;-81
2022/03/29 12:47:56;;;;;;;19.85;6.93;;;11.60;99.90;;;;;;5111821;27;20133;-81
2022/03/29 12:50:22;;;;;;;21.02;6.85;;;11.50;99.90;;;;;;5112325;27;20043;-81
2022/03/29 12:52:48;;;;;;;12.70;6.07;;;11.50;99.90;;;;;;5111761;27;20039;-81
2022/03/29 12:55:19;;;;;;;19.05;6.35;;;11.60;99.90;;;;;;5111944;27;20062;-81
2022/03/29 12:57:46;;;;;;;16.13;6.60;;;12.20;99.40;;;;;;5076444;28;20494;-81
2022/03/29 13:00:15;;;;;;;15.70;6.57;;;11.60;99.90;;;;;;5093553;27;20047;-81